sensor_id;sensor_type;location;lat;lon;timestamp;P1;durP1;ratioP1;P2;durP2;ratioP2
4464;SDS011;2245;48.136;13.428;2023-05-07T00:00:35;7.33;;;5.20;;
4464;SDS011;2245;48.136;13.428;2023-05-07T00:03:04;5.83;;;4.67;;
4464;SDS011;2245;48.136;13.428;2023-05-07T00:05:31;6.20;;;4.50;;
4464;SDS011;2245;48.136;13.428;2023-05-07T00:07:58;7.30;;;4.70;;
4464;SDS011;2245;48.136;13.428;2023-05-07T00:10:25;6.80;;;4.40;;
4464;SDS011;2245;48.136;13.428;2023-05-07T00:12:52;4.70;;;4.00;;
4464;SDS011;2245;48.136;13.428;2023-05-07T00:15:19;4.90;;;3.63;;
4464;SDS011;2245;48.136;13.428;2023-05-07T00:17:46;5.30;;;4.10;;
4464;SDS011;2245;48.136;13.428;2023-05-07T00:20:14;4.53;;;4.13;;
4464;SDS011;2245;48.136;13.428;2023-05-07T00:22:41;4.83;;;4.17;;
4464;SDS011;2245;48.136;13.428;2023-05-07T00:25:08;7.30;;;4.80;;
4464;SDS011;2245;48.136;13.428;2023-05-07T00:27:35;8.87;;;5.07;;
4464;SDS011;2245;48.136;13.428;2023-05-07T00:30:02;4.90;;;4.00;;
4464;SDS011;2245;48.136;13.428;2023-05-07T00:32:29;5.67;;;4.10;;
4464;SDS011;2245;48.136;13.428;2023-05-07T00:34:56;4.70;;;4.00;;
4464;SDS011;2245;48.136;13.428;2023-05-07T00:37:24;4.63;;;4.20;;
4464;SDS011;2245;48.136;13.428;2023-05-07T00:39:51;6.07;;;4.33;;
4464;SDS011;2245;48.136;13.428;2023-05-07T00:42:18;7.47;;;4.63;;
4464;SDS011;2245;48.136;13.428;2023-05-07T00:44:45;4.60;;;4.10;;
4464;SDS011;2245;48.136;13.428;2023-05-07T00:47:12;5.83;;;4.47;;
4464;SDS011;2245;48.136;13.428;2023-05-07T00:49:41;5.50;;;4.80;;
4464;SDS011;2245;48.136;13.428;2023-05-07T00:52:09;6.60;;;5.30;;
4464;SDS011;2245;48.136;13.428;2023-05-07T00:54:37;5.70;;;4.80;;
4464;SDS011;2245;48.136;13.428;2023-05-07T00:57:05;7.70;;;5.20;;
4464;SDS011;2245;48.136;13.428;2023-05-07T00:59:32;5.10;;;4.17;;
4464;SDS011;2245;48.136;13.428;2023-05-07T01:02:00;6.20;;;4.53;;
4464;SDS011;2245;48.136;13.428;2023-05-07T01:04:27;11.83;;;4.33;;
4464;SDS011;2245;48.136;13.428;2023-05-07T01:06:54;5.83;;;4.47;;
4464;SDS011;2245;48.136;13.428;2023-05-07T01:09:22;7.87;;;5.50;;
4464;SDS011;2245;48.136;13.428;2023-05-07T01:11:51;6.50;;;4.97;;
4464;SDS011;2245;48.136;13.428;2023-05-07T01:14:18;6.40;;;5.80;;
4464;SDS011;2245;48.136;13.428;2023-05-07T01:16:45;11.40;;;4.50;;
4464;SDS011;2245;48.136;13.428;2023-05-07T01:19:12;8.10;;;6.30;;
4464;SDS011;2245;48.136;13.428;2023-05-07T01:21:42;11.13;;;5.30;;
4464;SDS011;2245;48.136;13.428;2023-05-07T01:24:12;8.67;;;5.80;;
4464;SDS011;2245;48.136;13.428;2023-05-07T01:26:40;9.73;;;5.27;;
4464;SDS011;2245;48.136;13.428;2023-05-07T01:29:08;7.07;;;4.80;;
4464;SDS011;2245;48.136;13.428;2023-05-07T01:31:35;4.77;;;4.03;;
4464;SDS011;2245;48.136;13.428;2023-05-07T01:34:02;5.60;;;5.00;;
4464;SDS011;2245;48.136;13.428;2023-05-07T01:36:30;6.37;;;5.60;;
4464;SDS011;2245;48.136;13.428;2023-05-07T01:38:58;5.30;;;4.80;;
4464;SDS011;2245;48.136;13.428;2023-05-07T01:41:27;8.60;;;5.70;;
4464;SDS011;2245;48.136;13.428;2023-05-07T01:43:54;7.67;;;4.77;;
4464;SDS011;2245;48.136;13.428;2023-05-07T01:46:22;10.33;;;6.03;;
4464;SDS011;2245;48.136;13.428;2023-05-07T01:48:49;7.73;;;5.30;;
4464;SDS011;2245;48.136;13.428;2023-05-07T01:51:16;5.43;;;4.90;;
4464;SDS011;2245;48.136;13.428;2023-05-07T01:53:45;6.40;;;5.20;;
4464;SDS011;2245;48.136;13.428;2023-05-07T01:56:15;5.80;;;5.20;;
4464;SDS011;2245;48.136;13.428;2023-05-07T01:58:44;5.57;;;4.97;;
4464;SDS011;2245;48.136;13.428;2023-05-07T02:01:11;7.63;;;5.20;;
4464;SDS011;2245;48.136;13.428;2023-05-07T02:03:39;15.47;;;5.30;;
4464;SDS011;2245;48.136;13.428;2023-05-07T02:06:07;6.50;;;4.93;;
4464;SDS011;2245;48.136;13.428;2023-05-07T02:08:33;5.10;;;4.60;;
4464;SDS011;2245;48.136;13.428;2023-05-07T02:11:00;11.00;;;5.50;;
4464;SDS011;2245;48.136;13.428;2023-05-07T02:13:28;7.70;;;5.80;;
4464;SDS011;2245;48.136;13.428;2023-05-07T02:15:57;9.27;;;6.50;;
4464;SDS011;2245;48.136;13.428;2023-05-07T02:18:24;9.70;;;6.10;;
4464;SDS011;2245;48.136;13.428;2023-05-07T02:20:51;12.53;;;5.73;;
4464;SDS011;2245;48.136;13.428;2023-05-07T02:23:17;6.57;;;4.93;;
4464;SDS011;2245;48.136;13.428;2023-05-07T02:25:44;9.13;;;5.50;;
4464;SDS011;2245;48.136;13.428;2023-05-07T02:28:11;5.83;;;4.93;;
4464;SDS011;2245;48.136;13.428;2023-05-07T02:30:38;6.23;;;5.60;;
4464;SDS011;2245;48.136;13.428;2023-05-07T02:33:07;6.77;;;5.90;;
4464;SDS011;2245;48.136;13.428;2023-05-07T02:35:34;8.20;;;6.03;;
4464;SDS011;2245;48.136;13.428;2023-05-07T02:38:01;16.03;;;6.33;;
4464;SDS011;2245;48.136;13.428;2023-05-07T02:40:28;8.67;;;5.30;;
4464;SDS011;2245;48.136;13.428;2023-05-07T02:42:58;6.43;;;5.00;;
4464;SDS011;2245;48.136;13.428;2023-05-07T02:45:25;7.03;;;5.80;;
4464;SDS011;2245;48.136;13.428;2023-05-07T02:47:52;9.33;;;5.63;;
4464;SDS011;2245;48.136;13.428;2023-05-07T02:50:21;18.20;;;6.03;;
4464;SDS011;2245;48.136;13.428;2023-05-07T02:52:48;9.90;;;5.80;;
4464;SDS011;2245;48.136;13.428;2023-05-07T02:55:15;6.87;;;6.00;;
4464;SDS011;2245;48.136;13.428;2023-05-07T02:57:42;6.23;;;5.33;;
4464;SDS011;2245;48.136;13.428;2023-05-07T03:00:12;6.70;;;5.23;;
4464;SDS011;2245;48.136;13.428;2023-05-07T03:02:40;5.37;;;4.87;;
4464;SDS011;2245;48.136;13.428;2023-05-07T03:05:07;7.07;;;6.23;;
4464;SDS011;2245;48.136;13.428;2023-05-07T03:07:36;6.87;;;5.17;;
4464;SDS011;2245;48.136;13.428;2023-05-07T03:10:03;11.03;;;6.40;;
4464;SDS011;2245;48.136;13.428;2023-05-07T03:12:30;13.87;;;5.67;;
4464;SDS011;2245;48.136;13.428;2023-05-07T03:14:57;10.20;;;6.63;;
4464;SDS011;2245;48.136;13.428;2023-05-07T03:17:24;8.40;;;5.73;;
4464;SDS011;2245;48.136;13.428;2023-05-07T03:19:51;18.00;;;6.40;;
4464;SDS011;2245;48.136;13.428;2023-05-07T03:22:17;11.23;;;6.63;;
4464;SDS011;2245;48.136;13.428;2023-05-07T03:24:46;8.93;;;6.00;;
4464;SDS011;2245;48.136;13.428;2023-05-07T03:27:12;8.80;;;6.17;;
4464;SDS011;2245;48.136;13.428;2023-05-07T03:29:39;10.97;;;6.33;;
4464;SDS011;2245;48.136;13.428;2023-05-07T03:32:06;9.77;;;5.63;;
4464;SDS011;2245;48.136;13.428;2023-05-07T03:34:33;14.20;;;6.47;;
4464;SDS011;2245;48.136;13.428;2023-05-07T03:37:00;12.63;;;6.03;;
4464;SDS011;2245;48.136;13.428;2023-05-07T03:39:26;10.27;;;6.00;;
4464;SDS011;2245;48.136;13.428;2023-05-07T03:41:55;8.43;;;6.57;;
4464;SDS011;2245;48.136;13.428;2023-05-07T03:44:21;10.37;;;6.37;;
4464;SDS011;2245;48.136;13.428;2023-05-07T03:46:48;15.10;;;6.70;;
4464;SDS011;2245;48.136;13.428;2023-05-07T03:49:15;8.07;;;5.73;;
4464;SDS011;2245;48.136;13.428;2023-05-07T03:51:42;8.13;;;5.97;;
4464;SDS011;2245;48.136;13.428;2023-05-07T03:54:09;8.53;;;6.10;;
4464;SDS011;2245;48.136;13.428;2023-05-07T03:56:36;7.83;;;6.50;;
4464;SDS011;2245;48.136;13.428;2023-05-07T03:59:04;8.03;;;6.27;;
4464;SDS011;2245;48.136;13.428;2023-05-07T04:01:31;7.97;;;6.00;;
4464;SDS011;2245;48.136;13.428;2023-05-07T04:03:58;8.70;;;6.37;;
4464;SDS011;2245;48.136;13.428;2023-05-07T04:06:24;12.93;;;6.90;;
4464;SDS011;2245;48.136;13.428;2023-05-07T04:08:52;10.03;;;7.13;;
4464;SDS011;2245;48.136;13.428;2023-05-07T04:11:19;11.23;;;6.07;;
4464;SDS011;2245;48.136;13.428;2023-05-07T04:13:46;16.20;;;11.40;;
4464;SDS011;2245;48.136;13.428;2023-05-07T04:16:14;23.33;;;12.93;;
4464;SDS011;2245;48.136;13.428;2023-05-07T04:18:41;20.13;;;12.67;;
4464;SDS011;2245;48.136;13.428;2023-05-07T04:21:13;14.23;;;9.90;;
4464;SDS011;2245;48.136;13.428;2023-05-07T04:23:40;14.50;;;9.30;;
4464;SDS011;2245;48.136;13.428;2023-05-07T04:26:07;10.47;;;8.07;;
4464;SDS011;2245;48.136;13.428;2023-05-07T04:28:34;9.10;;;7.57;;
4464;SDS011;2245;48.136;13.428;2023-05-07T04:31:01;8.80;;;6.23;;
4464;SDS011;2245;48.136;13.428;2023-05-07T04:33:29;10.30;;;7.43;;
4464;SDS011;2245;48.136;13.428;2023-05-07T04:35:56;8.33;;;6.40;;
4464;SDS011;2245;48.136;13.428;2023-05-07T04:38:27;16.50;;;9.57;;
4464;SDS011;2245;48.136;13.428;2023-05-07T04:40:55;12.60;;;9.60;;
4464;SDS011;2245;48.136;13.428;2023-05-07T04:43:22;16.37;;;11.00;;
4464;SDS011;2245;48.136;13.428;2023-05-07T04:45:49;13.93;;;9.70;;
4464;SDS011;2245;48.136;13.428;2023-05-07T04:48:16;15.00;;;7.30;;
4464;SDS011;2245;48.136;13.428;2023-05-07T04:50:46;11.10;;;6.90;;
4464;SDS011;2245;48.136;13.428;2023-05-07T04:53:13;12.50;;;7.17;;
4464;SDS011;2245;48.136;13.428;2023-05-07T04:55:40;9.63;;;5.93;;
4464;SDS011;2245;48.136;13.428;2023-05-07T04:58:07;8.60;;;6.50;;
4464;SDS011;2245;48.136;13.428;2023-05-07T05:00:34;9.27;;;5.87;;
4464;SDS011;2245;48.136;13.428;2023-05-07T05:03:01;8.30;;;6.23;;
4464;SDS011;2245;48.136;13.428;2023-05-07T05:05:28;11.60;;;6.80;;
4464;SDS011;2245;48.136;13.428;2023-05-07T05:07:56;11.60;;;8.07;;
4464;SDS011;2245;48.136;13.428;2023-05-07T05:10:23;14.23;;;7.70;;
4464;SDS011;2245;48.136;13.428;2023-05-07T05:12:50;13.50;;;7.97;;
4464;SDS011;2245;48.136;13.428;2023-05-07T05:15:17;17.10;;;9.10;;
4464;SDS011;2245;48.136;13.428;2023-05-07T05:17:44;10.47;;;8.37;;
4464;SDS011;2245;48.136;13.428;2023-05-07T05:20:11;18.13;;;9.20;;
4464;SDS011;2245;48.136;13.428;2023-05-07T05:22:38;13.70;;;8.43;;
4464;SDS011;2245;48.136;13.428;2023-05-07T05:25:06;12.83;;;7.67;;
4464;SDS011;2245;48.136;13.428;2023-05-07T05:27:34;8.87;;;6.90;;
4464;SDS011;2245;48.136;13.428;2023-05-07T05:30:01;11.70;;;7.53;;
4464;SDS011;2245;48.136;13.428;2023-05-07T05:32:28;8.97;;;7.07;;
4464;SDS011;2245;48.136;13.428;2023-05-07T05:34:55;9.10;;;6.57;;
4464;SDS011;2245;48.136;13.428;2023-05-07T05:37:22;9.53;;;6.77;;
4464;SDS011;2245;48.136;13.428;2023-05-07T05:39:48;11.13;;;7.20;;
4464;SDS011;2245;48.136;13.428;2023-05-07T05:42:17;6.77;;;6.07;;
4464;SDS011;2245;48.136;13.428;2023-05-07T05:44:43;8.63;;;6.90;;
4464;SDS011;2245;48.136;13.428;2023-05-07T05:47:10;18.37;;;11.80;;
4464;SDS011;2245;48.136;13.428;2023-05-07T05:49:37;7.87;;;7.00;;
4464;SDS011;2245;48.136;13.428;2023-05-07T05:52:04;10.27;;;6.70;;
4464;SDS011;2245;48.136;13.428;2023-05-07T05:54:31;11.67;;;7.70;;
4464;SDS011;2245;48.136;13.428;2023-05-07T05:56:58;10.40;;;7.30;;
4464;SDS011;2245;48.136;13.428;2023-05-07T05:59:26;10.27;;;7.90;;
4464;SDS011;2245;48.136;13.428;2023-05-07T06:01:53;8.33;;;5.90;;
4464;SDS011;2245;48.136;13.428;2023-05-07T06:04:20;11.03;;;6.50;;
4464;SDS011;2245;48.136;13.428;2023-05-07T06:06:46;6.80;;;5.67;;
4464;SDS011;2245;48.136;13.428;2023-05-07T06:09:13;5.90;;;5.23;;
4464;SDS011;2245;48.136;13.428;2023-05-07T06:11:40;6.03;;;5.43;;
4464;SDS011;2245;48.136;13.428;2023-05-07T06:14:07;6.00;;;5.10;;
4464;SDS011;2245;48.136;13.428;2023-05-07T06:16:35;7.30;;;4.83;;
4464;SDS011;2245;48.136;13.428;2023-05-07T06:19:03;5.20;;;4.63;;
4464;SDS011;2245;48.136;13.428;2023-05-07T06:21:29;8.40;;;4.90;;
4464;SDS011;2245;48.136;13.428;2023-05-07T06:23:57;4.83;;;4.33;;
4464;SDS011;2245;48.136;13.428;2023-05-07T06:26:24;4.60;;;3.90;;
4464;SDS011;2245;48.136;13.428;2023-05-07T06:28:50;5.17;;;4.67;;
4464;SDS011;2245;48.136;13.428;2023-05-07T06:31:19;7.60;;;4.50;;
4464;SDS011;2245;48.136;13.428;2023-05-07T06:33:48;6.53;;;3.63;;
4464;SDS011;2245;48.136;13.428;2023-05-07T06:36:15;6.47;;;4.53;;
4464;SDS011;2245;48.136;13.428;2023-05-07T06:38:42;11.07;;;4.30;;
4464;SDS011;2245;48.136;13.428;2023-05-07T06:41:09;5.20;;;4.47;;
4464;SDS011;2245;48.136;13.428;2023-05-07T06:43:36;7.87;;;4.10;;
4464;SDS011;2245;48.136;13.428;2023-05-07T06:46:03;4.37;;;3.87;;
4464;SDS011;2245;48.136;13.428;2023-05-07T06:48:30;5.47;;;4.23;;
4464;SDS011;2245;48.136;13.428;2023-05-07T06:50:58;6.63;;;4.20;;
4464;SDS011;2245;48.136;13.428;2023-05-07T06:53:25;5.20;;;3.97;;
4464;SDS011;2245;48.136;13.428;2023-05-07T06:55:53;4.03;;;3.63;;
4464;SDS011;2245;48.136;13.428;2023-05-07T06:58:20;7.83;;;5.30;;
4464;SDS011;2245;48.136;13.428;2023-05-07T07:00:47;6.30;;;3.93;;
4464;SDS011;2245;48.136;13.428;2023-05-07T07:03:14;4.80;;;4.03;;
4464;SDS011;2245;48.136;13.428;2023-05-07T07:05:41;5.13;;;3.73;;
4464;SDS011;2245;48.136;13.428;2023-05-07T07:08:10;11.80;;;4.07;;
4464;SDS011;2245;48.136;13.428;2023-05-07T07:10:37;3.87;;;3.57;;
4464;SDS011;2245;48.136;13.428;2023-05-07T07:13:03;5.93;;;3.93;;
4464;SDS011;2245;48.136;13.428;2023-05-07T07:15:30;3.97;;;3.57;;
4464;SDS011;2245;48.136;13.428;2023-05-07T07:17:57;5.73;;;3.60;;
4464;SDS011;2245;48.136;13.428;2023-05-07T07:20:24;4.40;;;4.00;;
4464;SDS011;2245;48.136;13.428;2023-05-07T07:22:51;3.30;;;3.00;;
4464;SDS011;2245;48.136;13.428;2023-05-07T07:25:19;7.57;;;4.00;;
4464;SDS011;2245;48.136;13.428;2023-05-07T07:27:46;3.70;;;3.40;;
4464;SDS011;2245;48.136;13.428;2023-05-07T07:30:13;6.60;;;4.40;;
4464;SDS011;2245;48.136;13.428;2023-05-07T07:32:40;3.83;;;3.53;;
4464;SDS011;2245;48.136;13.428;2023-05-07T07:35:08;9.03;;;4.10;;
4464;SDS011;2245;48.136;13.428;2023-05-07T07:37:35;3.93;;;3.33;;
4464;SDS011;2245;48.136;13.428;2023-05-07T07:40:02;4.07;;;3.67;;
4464;SDS011;2245;48.136;13.428;2023-05-07T07:42:31;7.43;;;3.87;;
4464;SDS011;2245;48.136;13.428;2023-05-07T07:44:57;4.47;;;3.13;;
4464;SDS011;2245;48.136;13.428;2023-05-07T07:47:24;5.20;;;4.00;;
4464;SDS011;2245;48.136;13.428;2023-05-07T07:49:51;4.63;;;4.10;;
4464;SDS011;2245;48.136;13.428;2023-05-07T07:52:18;8.70;;;4.43;;
4464;SDS011;2245;48.136;13.428;2023-05-07T07:54:45;3.80;;;3.50;;
4464;SDS011;2245;48.136;13.428;2023-05-07T07:57:12;5.00;;;3.93;;
4464;SDS011;2245;48.136;13.428;2023-05-07T07:59:40;4.40;;;3.90;;
4464;SDS011;2245;48.136;13.428;2023-05-07T08:02:08;4.47;;;4.00;;
4464;SDS011;2245;48.136;13.428;2023-05-07T08:04:35;5.23;;;4.50;;
4464;SDS011;2245;48.136;13.428;2023-05-07T08:07:02;7.13;;;4.27;;
4464;SDS011;2245;48.136;13.428;2023-05-07T08:09:29;8.00;;;3.67;;
4464;SDS011;2245;48.136;13.428;2023-05-07T08:11:56;6.93;;;3.80;;
4464;SDS011;2245;48.136;13.428;2023-05-07T08:14:23;5.43;;;4.17;;
4464;SDS011;2245;48.136;13.428;2023-05-07T08:16:51;8.80;;;5.40;;
4464;SDS011;2245;48.136;13.428;2023-05-07T08:19:18;9.23;;;4.50;;
4464;SDS011;2245;48.136;13.428;2023-05-07T08:21:46;6.87;;;5.33;;
4464;SDS011;2245;48.136;13.428;2023-05-07T08:24:13;5.20;;;4.77;;
4464;SDS011;2245;48.136;13.428;2023-05-07T08:26:41;6.27;;;5.67;;
4464;SDS011;2245;48.136;13.428;2023-05-07T08:29:08;6.60;;;5.47;;
4464;SDS011;2245;48.136;13.428;2023-05-07T08:31:34;5.40;;;4.90;;
4464;SDS011;2245;48.136;13.428;2023-05-07T08:34:03;10.57;;;5.30;;
4464;SDS011;2245;48.136;13.428;2023-05-07T08:36:30;6.50;;;5.43;;
4464;SDS011;2245;48.136;13.428;2023-05-07T08:38:57;6.47;;;5.37;;
4464;SDS011;2245;48.136;13.428;2023-05-07T08:41:24;6.37;;;5.77;;
4464;SDS011;2245;48.136;13.428;2023-05-07T08:43:51;6.33;;;5.67;;
4464;SDS011;2245;48.136;13.428;2023-05-07T08:46:18;8.17;;;6.20;;
4464;SDS011;2245;48.136;13.428;2023-05-07T08:48:47;7.63;;;6.90;;
4464;SDS011;2245;48.136;13.428;2023-05-07T08:51:17;6.93;;;5.83;;
4464;SDS011;2245;48.136;13.428;2023-05-07T08:53:44;9.33;;;7.00;;
4464;SDS011;2245;48.136;13.428;2023-05-07T08:56:11;9.13;;;6.87;;
4464;SDS011;2245;48.136;13.428;2023-05-07T08:58:40;7.90;;;5.90;;
4464;SDS011;2245;48.136;13.428;2023-05-07T09:01:07;10.50;;;7.60;;
4464;SDS011;2245;48.136;13.428;2023-05-07T09:03:35;9.17;;;6.43;;
4464;SDS011;2245;48.136;13.428;2023-05-07T09:06:03;8.60;;;6.43;;
4464;SDS011;2245;48.136;13.428;2023-05-07T09:08:31;8.93;;;8.03;;
4464;SDS011;2245;48.136;13.428;2023-05-07T09:10:58;8.37;;;7.07;;
4464;SDS011;2245;48.136;13.428;2023-05-07T09:13:26;10.50;;;7.80;;
4464;SDS011;2245;48.136;13.428;2023-05-07T09:15:54;9.33;;;8.40;;
4464;SDS011;2245;48.136;13.428;2023-05-07T09:18:21;9.47;;;7.70;;
4464;SDS011;2245;48.136;13.428;2023-05-07T09:20:50;8.87;;;7.53;;
4464;SDS011;2245;48.136;13.428;2023-05-07T09:23:17;12.37;;;7.87;;
4464;SDS011;2245;48.136;13.428;2023-05-07T09:25:45;8.77;;;6.93;;
4464;SDS011;2245;48.136;13.428;2023-05-07T09:28:12;8.63;;;7.40;;
4464;SDS011;2245;48.136;13.428;2023-05-07T09:30:39;8.33;;;7.40;;
4464;SDS011;2245;48.136;13.428;2023-05-07T09:33:06;10.00;;;8.10;;
4464;SDS011;2245;48.136;13.428;2023-05-07T09:35:33;16.00;;;8.30;;
4464;SDS011;2245;48.136;13.428;2023-05-07T09:38:00;9.97;;;8.50;;
4464;SDS011;2245;48.136;13.428;2023-05-07T09:40:28;9.20;;;7.47;;
4464;SDS011;2245;48.136;13.428;2023-05-07T09:43:01;11.70;;;8.50;;
4464;SDS011;2245;48.136;13.428;2023-05-07T09:45:35;10.23;;;7.50;;
4464;SDS011;2245;48.136;13.428;2023-05-07T09:48:04;13.07;;;8.63;;
4464;SDS011;2245;48.136;13.428;2023-05-07T09:50:34;13.97;;;9.70;;
4464;SDS011;2245;48.136;13.428;2023-05-07T09:53:03;22.40;;;9.13;;
4464;SDS011;2245;48.136;13.428;2023-05-07T09:55:30;12.97;;;8.80;;
4464;SDS011;2245;48.136;13.428;2023-05-07T09:57:58;10.43;;;8.53;;
4464;SDS011;2245;48.136;13.428;2023-05-07T10:00:27;10.73;;;8.73;;
4464;SDS011;2245;48.136;13.428;2023-05-07T10:02:56;18.40;;;8.00;;
4464;SDS011;2245;48.136;13.428;2023-05-07T10:05:23;10.63;;;8.00;;
4464;SDS011;2245;48.136;13.428;2023-05-07T10:07:51;10.17;;;7.97;;
4464;SDS011;2245;48.136;13.428;2023-05-07T10:10:19;9.10;;;7.07;;
4464;SDS011;2245;48.136;13.428;2023-05-07T10:12:46;9.67;;;7.77;;
4464;SDS011;2245;48.136;13.428;2023-05-07T10:15:15;11.73;;;8.27;;
4464;SDS011;2245;48.136;13.428;2023-05-07T10:17:42;8.30;;;7.47;;
4464;SDS011;2245;48.136;13.428;2023-05-07T10:20:09;11.13;;;8.70;;
4464;SDS011;2245;48.136;13.428;2023-05-07T10:22:38;10.63;;;7.87;;
4464;SDS011;2245;48.136;13.428;2023-05-07T10:25:06;8.33;;;7.20;;
4464;SDS011;2245;48.136;13.428;2023-05-07T10:27:36;7.80;;;5.70;;
4464;SDS011;2245;48.136;13.428;2023-05-07T10:30:06;9.20;;;8.20;;
4464;SDS011;2245;48.136;13.428;2023-05-07T10:32:40;11.73;;;8.73;;
4464;SDS011;2245;48.136;13.428;2023-05-07T10:35:10;9.30;;;6.90;;
4464;SDS011;2245;48.136;13.428;2023-05-07T10:37:41;10.67;;;8.53;;
4464;SDS011;2245;48.136;13.428;2023-05-07T10:40:09;21.40;;;8.13;;
4464;SDS011;2245;48.136;13.428;2023-05-07T10:42:37;10.90;;;8.07;;
4464;SDS011;2245;48.136;13.428;2023-05-07T10:45:13;10.30;;;7.97;;
4464;SDS011;2245;48.136;13.428;2023-05-07T10:50:38;13.70;;;8.50;;
4464;SDS011;2245;48.136;13.428;2023-05-07T10:55:49;12.30;;;8.10;;
4464;SDS011;2245;48.136;13.428;2023-05-07T10:58:26;9.17;;;8.13;;
4464;SDS011;2245;48.136;13.428;2023-05-07T11:00:56;9.00;;;7.93;;
4464;SDS011;2245;48.136;13.428;2023-05-07T11:03:25;8.83;;;7.60;;
4464;SDS011;2245;48.136;13.428;2023-05-07T11:06:11;11.50;;;7.73;;
4464;SDS011;2245;48.136;13.428;2023-05-07T11:08:52;12.63;;;8.20;;
4464;SDS011;2245;48.136;13.428;2023-05-07T11:11:19;10.00;;;7.30;;
4464;SDS011;2245;48.136;13.428;2023-05-07T11:13:47;10.00;;;8.00;;
4464;SDS011;2245;48.136;13.428;2023-05-07T11:16:16;11.77;;;7.83;;
4464;SDS011;2245;48.136;13.428;2023-05-07T11:18:48;10.80;;;8.00;;
4464;SDS011;2245;48.136;13.428;2023-05-07T11:21:32;11.40;;;7.27;;
4464;SDS011;2245;48.136;13.428;2023-05-07T11:24:00;10.57;;;8.10;;
4464;SDS011;2245;48.136;13.428;2023-05-07T11:26:28;12.40;;;7.97;;
4464;SDS011;2245;48.136;13.428;2023-05-07T11:28:56;10.43;;;8.13;;
4464;SDS011;2245;48.136;13.428;2023-05-07T11:31:26;12.07;;;7.40;;
4464;SDS011;2245;48.136;13.428;2023-05-07T11:33:56;10.17;;;7.60;;
4464;SDS011;2245;48.136;13.428;2023-05-07T11:36:23;7.57;;;6.43;;
4464;SDS011;2245;48.136;13.428;2023-05-07T11:38:51;9.53;;;7.70;;
4464;SDS011;2245;48.136;13.428;2023-05-07T11:41:18;10.13;;;8.73;;
4464;SDS011;2245;48.136;13.428;2023-05-07T11:43:53;12.40;;;8.17;;
4464;SDS011;2245;48.136;13.428;2023-05-07T11:46:21;11.00;;;8.00;;
4464;SDS011;2245;48.136;13.428;2023-05-07T11:48:48;10.23;;;7.23;;
4464;SDS011;2245;48.136;13.428;2023-05-07T11:51:19;11.53;;;7.20;;
4464;SDS011;2245;48.136;13.428;2023-05-07T11:53:47;10.07;;;7.90;;
4464;SDS011;2245;48.136;13.428;2023-05-07T11:56:14;11.07;;;7.43;;
4464;SDS011;2245;48.136;13.428;2023-05-07T11:58:42;8.37;;;6.40;;
4464;SDS011;2245;48.136;13.428;2023-05-07T12:01:10;9.80;;;6.83;;
4464;SDS011;2245;48.136;13.428;2023-05-07T12:03:39;8.53;;;6.73;;
4464;SDS011;2245;48.136;13.428;2023-05-07T12:06:09;8.10;;;5.60;;
4464;SDS011;2245;48.136;13.428;2023-05-07T12:08:37;11.60;;;7.50;;
4464;SDS011;2245;48.136;13.428;2023-05-07T12:11:07;7.30;;;6.20;;
4464;SDS011;2245;48.136;13.428;2023-05-07T12:13:34;6.90;;;5.43;;
4464;SDS011;2245;48.136;13.428;2023-05-07T12:16:01;10.07;;;7.07;;
4464;SDS011;2245;48.136;13.428;2023-05-07T12:18:29;10.33;;;6.80;;
4464;SDS011;2245;48.136;13.428;2023-05-07T12:20:56;7.97;;;6.43;;
4464;SDS011;2245;48.136;13.428;2023-05-07T12:23:23;12.80;;;7.03;;
4464;SDS011;2245;48.136;13.428;2023-05-07T12:25:52;7.90;;;6.27;;
4464;SDS011;2245;48.136;13.428;2023-05-07T12:28:19;6.67;;;4.90;;
4464;SDS011;2245;48.136;13.428;2023-05-07T12:30:46;7.43;;;5.50;;
4464;SDS011;2245;48.136;13.428;2023-05-07T12:33:15;7.40;;;4.47;;
4464;SDS011;2245;48.136;13.428;2023-05-07T12:35:42;9.83;;;4.97;;
4464;SDS011;2245;48.136;13.428;2023-05-07T12:38:10;9.03;;;4.90;;
4464;SDS011;2245;48.136;13.428;2023-05-07T12:40:38;4.70;;;4.20;;
4464;SDS011;2245;48.136;13.428;2023-05-07T12:43:07;7.70;;;4.70;;
4464;SDS011;2245;48.136;13.428;2023-05-07T12:45:37;5.30;;;3.97;;
4464;SDS011;2245;48.136;13.428;2023-05-07T12:48:05;3.83;;;3.53;;
4464;SDS011;2245;48.136;13.428;2023-05-07T12:50:32;4.57;;;3.37;;
4464;SDS011;2245;48.136;13.428;2023-05-07T12:52:59;7.37;;;3.30;;
4464;SDS011;2245;48.136;13.428;2023-05-07T12:55:28;6.73;;;3.63;;
4464;SDS011;2245;48.136;13.428;2023-05-07T12:57:55;4.20;;;3.80;;
4464;SDS011;2245;48.136;13.428;2023-05-07T13:00:33;4.93;;;3.77;;
4464;SDS011;2245;48.136;13.428;2023-05-07T13:03:01;6.43;;;3.50;;
4464;SDS011;2245;48.136;13.428;2023-05-07T13:05:28;3.13;;;2.90;;
4464;SDS011;2245;48.136;13.428;2023-05-07T13:07:55;3.43;;;2.87;;
4464;SDS011;2245;48.136;13.428;2023-05-07T13:10:22;5.63;;;3.03;;
4464;SDS011;2245;48.136;13.428;2023-05-07T13:12:50;3.17;;;2.87;;
4464;SDS011;2245;48.136;13.428;2023-05-07T13:15:17;2.73;;;2.53;;
4464;SDS011;2245;48.136;13.428;2023-05-07T13:17:45;5.03;;;2.83;;
4464;SDS011;2245;48.136;13.428;2023-05-07T13:20:12;3.50;;;2.97;;
4464;SDS011;2245;48.136;13.428;2023-05-07T13:22:40;3.63;;;2.87;;
4464;SDS011;2245;48.136;13.428;2023-05-07T13:25:07;2.73;;;2.40;;
4464;SDS011;2245;48.136;13.428;2023-05-07T13:27:35;2.80;;;2.60;;
4464;SDS011;2245;48.136;13.428;2023-05-07T13:30:02;3.00;;;2.73;;
4464;SDS011;2245;48.136;13.428;2023-05-07T13:32:30;3.00;;;2.70;;
4464;SDS011;2245;48.136;13.428;2023-05-07T13:34:59;2.97;;;2.50;;
4464;SDS011;2245;48.136;13.428;2023-05-07T13:37:26;5.53;;;3.60;;
4464;SDS011;2245;48.136;13.428;2023-05-07T13:39:53;3.13;;;2.30;;
4464;SDS011;2245;48.136;13.428;2023-05-07T13:42:20;3.57;;;3.27;;
4464;SDS011;2245;48.136;13.428;2023-05-07T13:44:47;4.50;;;3.63;;
4464;SDS011;2245;48.136;13.428;2023-05-07T13:47:14;3.40;;;3.10;;
4464;SDS011;2245;48.136;13.428;2023-05-07T13:49:41;4.97;;;3.20;;
4464;SDS011;2245;48.136;13.428;2023-05-07T13:52:09;5.27;;;3.20;;
4464;SDS011;2245;48.136;13.428;2023-05-07T13:54:36;3.53;;;2.97;;
4464;SDS011;2245;48.136;13.428;2023-05-07T13:57:03;3.77;;;3.10;;
4464;SDS011;2245;48.136;13.428;2023-05-07T13:59:30;7.00;;;3.20;;
4464;SDS011;2245;48.136;13.428;2023-05-07T14:01:56;3.73;;;3.43;;
4464;SDS011;2245;48.136;13.428;2023-05-07T14:04:23;3.60;;;2.93;;
4464;SDS011;2245;48.136;13.428;2023-05-07T14:06:50;4.03;;;3.37;;
4464;SDS011;2245;48.136;13.428;2023-05-07T14:09:18;8.10;;;3.60;;
4464;SDS011;2245;48.136;13.428;2023-05-07T14:11:45;4.93;;;2.77;;
4464;SDS011;2245;48.136;13.428;2023-05-07T14:14:16;3.77;;;3.13;;
4464;SDS011;2245;48.136;13.428;2023-05-07T14:16:43;10.73;;;3.20;;
4464;SDS011;2245;48.136;13.428;2023-05-07T14:19:10;4.33;;;3.67;;
4464;SDS011;2245;48.136;13.428;2023-05-07T14:21:37;5.07;;;3.87;;
4464;SDS011;2245;48.136;13.428;2023-05-07T14:24:05;4.77;;;3.20;;
4464;SDS011;2245;48.136;13.428;2023-05-07T14:26:34;5.30;;;4.10;;
4464;SDS011;2245;48.136;13.428;2023-05-07T14:29:01;4.33;;;3.93;;
4464;SDS011;2245;48.136;13.428;2023-05-07T14:31:28;4.33;;;3.60;;
4464;SDS011;2245;48.136;13.428;2023-05-07T14:33:55;4.20;;;3.77;;
4464;SDS011;2245;48.136;13.428;2023-05-07T14:36:23;6.33;;;3.10;;
4464;SDS011;2245;48.136;13.428;2023-05-07T14:38:51;4.20;;;3.50;;
4464;SDS011;2245;48.136;13.428;2023-05-07T14:41:18;5.50;;;3.20;;
4464;SDS011;2245;48.136;13.428;2023-05-07T14:43:47;5.00;;;3.90;;
4464;SDS011;2245;48.136;13.428;2023-05-07T14:46:15;5.30;;;3.63;;
4464;SDS011;2245;48.136;13.428;2023-05-07T14:48:43;8.27;;;3.43;;
4464;SDS011;2245;48.136;13.428;2023-05-07T14:51:11;4.90;;;3.97;;
4464;SDS011;2245;48.136;13.428;2023-05-07T14:53:38;6.13;;;4.33;;
4464;SDS011;2245;48.136;13.428;2023-05-07T14:56:05;7.20;;;4.90;;
4464;SDS011;2245;48.136;13.428;2023-05-07T14:58:37;6.67;;;4.20;;
4464;SDS011;2245;48.136;13.428;2023-05-07T15:01:06;6.03;;;4.30;;
4464;SDS011;2245;48.136;13.428;2023-05-07T15:03:33;5.60;;;3.90;;
4464;SDS011;2245;48.136;13.428;2023-05-07T15:06:01;4.60;;;3.30;;